sensor_id;sensor_type;location;lat;lon;timestamp;pressure;altitude;pressure_sealevel;temperature;humidity
61786;BME280;47692;53.714;11.372;2023-02-13T00:00:31;103194.38;;;5.27;100.00
61786;BME280;47692;53.714;11.372;2023-02-13T00:02:56;103194.47;;;5.28;100.00
61786;BME280;47692;53.714;11.372;2023-02-13T00:05:21;103193.44;;;5.25;100.00
61786;BME280;47692;53.714;11.372;2023-02-13T00:07:47;103190.16;;;5.29;100.00
61786;BME280;47692;53.714;11.372;2023-02-13T00:10:12;103183.09;;;5.25;100.00
61786;BME280;47692;53.714;11.372;2023-02-13T00:12:37;103186.59;;;5.27;100.00
61786;BME280;47692;53.714;11.372;2023-02-13T00:15:03;103186.38;;;5.21;100.00
61786;BME280;47692;53.714;11.372;2023-02-13T00:17:29;103177.91;;;5.25;100.00
61786;BME280;47692;53.714;11.372;2023-02-13T00:19:54;103182.44;;;5.30;100.00
61786;BME280;47692;53.714;11.372;2023-02-13T00:22:19;103178.72;;;5.24;100.00
61786;BME280;47692;53.714;11.372;2023-02-13T00:24:45;103181.28;;;5.22;100.00
61786;BME280;47692;53.714;11.372;2023-02-13T00:27:10;103179.41;;;5.20;100.00
61786;BME280;47692;53.714;11.372;2023-02-13T00:29:35;103180.25;;;5.18;100.00
61786;BME280;47692;53.714;11.372;2023-02-13T00:32:01;103170.72;;;5.17;100.00
61786;BME280;47692;53.714;11.372;2023-02-13T00:34:26;103173.38;;;5.19;100.00
61786;BME280;47692;53.714;11.372;2023-02-13T00:36:52;103173.38;;;5.19;100.00
61786;BME280;47692;53.714;11.372;2023-02-13T00:39:17;103167.31;;;5.18;100.00
61786;BME280;47692;53.714;11.372;2023-02-13T00:41:43;103173.31;;;5.17;100.00
61786;BME280;47692;53.714;11.372;2023-02-13T00:44:09;103171.66;;;5.20;100.00
61786;BME280;47692;53.714;11.372;2023-02-13T00:46:35;103168.00;;;5.14;100.00
61786;BME280;47692;53.714;11.372;2023-02-13T00:49:00;103175.91;;;5.17;100.00
61786;BME280;47692;53.714;11.372;2023-02-13T00:51:26;103164.47;;;5.12;100.00
61786;BME280;47692;53.714;11.372;2023-02-13T00:53:51;103167.19;;;5.15;100.00
61786;BME280;47692;53.714;11.372;2023-02-13T00:56:16;103171.50;;;5.15;100.00
61786;BME280;47692;53.714;11.372;2023-02-13T00:58:42;103171.50;;;5.15;100.00
61786;BME280;47692;53.714;11.372;2023-02-13T01:01:07;103168.94;;;5.16;100.00
61786;BME280;47692;53.714;11.372;2023-02-13T01:03:32;103168.94;;;5.16;100.00
61786;BME280;47692;53.714;11.372;2023-02-13T01:05:58;103169.78;;;5.15;100.00
61786;BME280;47692;53.714;11.372;2023-02-13T01:08:24;103166.31;;;5.15;100.00
61786;BME280;47692;53.714;11.372;2023-02-13T01:10:53;103174.00;;;5.13;100.00
61786;BME280;47692;53.714;11.372;2023-02-13T01:13:18;103169.81;;;5.17;100.00
61786;BME280;47692;53.714;11.372;2023-02-13T01:15:46;103167.19;;;5.15;100.00
61786;BME280;47692;53.714;11.372;2023-02-13T01:18:14;103164.59;;;5.15;100.00
61786;BME280;47692;53.714;11.372;2023-02-13T01:20:40;103170.59;;;5.14;100.00
61786;BME280;47692;53.714;11.372;2023-02-13T01:23:06;103177.53;;;5.15;100.00
61786;BME280;47692;53.714;11.372;2023-02-13T01:25:31;103175.00;;;5.17;100.00
61786;BME280;47692;53.714;11.372;2023-02-13T01:27:57;103170.59;;;5.14;100.00
61786;BME280;47692;53.714;11.372;2023-02-13T01:30:22;103168.91;;;5.15;100.00
61786;BME280;47692;53.714;11.372;2023-02-13T01:32:47;103173.13;;;5.13;100.00
61786;BME280;47692;53.714;11.372;2023-02-13T01:35:14;103181.09;;;5.17;100.00
61786;BME280;47692;53.714;11.372;2023-02-13T01:37:41;103168.81;;;5.13;100.00
61786;BME280;47692;53.714;11.372;2023-02-13T01:40:10;103169.06;;;5.20;100.00
61786;BME280;47692;53.714;11.372;2023-02-13T01:42:36;103168.94;;;5.16;100.00
61786;BME280;47692;53.714;11.372;2023-02-13T01:45:12;103168.06;;;5.16;100.00
61786;BME280;47692;53.714;11.372;2023-02-13T01:48:04;103158.59;;;5.16;100.00
61786;BME280;47692;53.714;11.372;2023-02-13T01:50:37;103144.69;;;5.14;100.00
61786;BME280;47692;53.714;11.372;2023-02-13T01:53:20;103157.78;;;5.17;100.00
61786;BME280;47692;53.714;11.372;2023-02-13T01:55:52;103152.31;;;5.10;100.00
61786;BME280;47692;53.714;11.372;2023-02-13T01:58:25;103155.72;;;5.09;100.00
61786;BME280;47692;53.714;11.372;2023-02-13T02:00:51;103158.47;;;5.13;100.00
61786;BME280;47692;53.714;11.372;2023-02-13T02:03:28;103148.84;;;5.11;100.00
61786;BME280;47692;53.714;11.372;2023-02-13T02:05:57;103152.34;;;5.11;100.00
61786;BME280;47692;53.714;11.372;2023-02-13T02:08:24;103152.16;;;5.07;100.00
61786;BME280;47692;53.714;11.372;2023-02-13T02:10:50;103153.16;;;5.10;100.00
61786;BME280;47692;53.714;11.372;2023-02-13T02:13:17;103151.28;;;5.06;100.00
61786;BME280;47692;53.714;11.372;2023-02-13T02:15:44;103158.09;;;5.04;100.00
61786;BME280;47692;53.714;11.372;2023-02-13T02:18:14;103150.28;;;5.03;100.00
61786;BME280;47692;53.714;11.372;2023-02-13T02:21:04;103148.63;;;5.05;100.00
61786;BME280;47692;53.714;11.372;2023-02-13T02:26:57;103148.63;;;5.05;100.00
61786;BME280;47692;53.714;11.372;2023-02-13T02:35:26;103135.63;;;5.03;100.00
61786;BME280;47692;53.714;11.372;2023-02-13T02:38:05;103133.84;;;5.02;100.00
61786;BME280;47692;53.714;11.372;2023-02-13T02:40:57;103132.94;;;5.00;100.00
61786;BME280;47692;53.714;11.372;2023-02-13T02:49:06;103130.44;;;5.03;100.00
61786;BME280;47692;53.714;11.372;2023-02-13T02:52:06;103129.44;;;4.99;99.45
61786;BME280;47692;53.714;11.372;2023-02-13T02:54:54;103121.75;;;5.01;97.85
61786;BME280;47692;53.714;11.372;2023-02-13T02:57:33;103120.09;;;5.03;97.35
61786;BME280;47692;53.714;11.372;2023-02-13T03:00:21;103122.72;;;5.05;97.28
61786;BME280;47692;53.714;11.372;2023-02-13T03:03:18;103114.81;;;5.00;97.48
61786;BME280;47692;53.714;11.372;2023-02-13T03:06:08;103121.66;;;4.99;97.91
61786;BME280;47692;53.714;11.372;2023-02-13T03:08:39;103121.56;;;4.96;98.07
61786;BME280;47692;53.714;11.372;2023-02-13T03:11:24;103119.97;;;5.00;98.03
61786;BME280;47692;53.714;11.372;2023-02-13T03:14:10;103116.56;;;5.01;97.52
61786;BME280;47692;53.714;11.372;2023-02-13T03:16:37;103107.84;;;4.99;97.07
61786;BME280;47692;53.714;11.372;2023-02-13T03:19:34;103110.50;;;5.00;96.69
61786;BME280;47692;53.714;11.372;2023-02-13T03:25:19;103111.16;;;4.95;95.61
61786;BME280;47692;53.714;11.372;2023-02-13T03:42:06;103129.28;;;4.95;95.61
61786;BME280;47692;53.714;11.372;2023-02-13T03:44:54;103131.03;;;4.96;95.58
61786;BME280;47692;53.714;11.372;2023-02-13T03:47:41;103138.53;;;4.90;95.63
61786;BME280;47692;53.714;11.372;2023-02-13T03:50:08;103136.09;;;4.93;95.98
61786;BME280;47692;53.714;11.372;2023-02-13T03:55:19;103132.50;;;4.89;96.88
61786;BME280;47692;53.714;11.372;2023-02-13T03:58:08;103138.50;;;4.88;97.41
61786;BME280;47692;53.714;11.372;2023-02-13T04:00:57;103134.13;;;4.87;97.99
61786;BME280;47692;53.714;11.372;2023-02-13T04:03:27;103140.06;;;4.84;98.63
61786;BME280;47692;53.714;11.372;2023-02-13T04:06:04;103139.16;;;4.82;99.31
61786;BME280;47692;53.714;11.372;2023-02-13T04:08:31;103152.09;;;4.82;100.00
61786;BME280;47692;53.714;11.372;2023-02-13T04:11:02;103152.09;;;4.82;100.00
61786;BME280;47692;53.714;11.372;2023-02-13T04:13:38;103147.84;;;4.84;100.00
61786;BME280;47692;53.714;11.372;2023-02-13T04:16:14;103137.53;;;4.86;100.00
61786;BME280;47692;53.714;11.372;2023-02-13T04:18:42;103137.38;;;4.81;100.00
61786;BME280;47692;53.714;11.372;2023-02-13T04:21:08;103142.47;;;4.80;100.00
61786;BME280;47692;53.714;11.372;2023-02-13T04:23:33;103147.59;;;4.78;100.00
61786;BME280;47692;53.714;11.372;2023-02-13T04:26:01;103141.75;;;4.82;100.00
61786;BME280;47692;53.714;11.372;2023-02-13T04:28:27;103139.22;;;4.84;100.00
61786;BME280;47692;53.714;11.372;2023-02-13T04:30:53;103141.59;;;4.79;100.00
61786;BME280;47692;53.714;11.372;2023-02-13T04:33:18;103138.81;;;4.75;100.00
61786;BME280;47692;53.714;11.372;2023-02-13T04:35:43;103137.13;;;4.75;100.00
61786;BME280;47692;53.714;11.372;2023-02-13T04:38:09;103134.53;;;4.75;100.00
61786;BME280;47692;53.714;11.372;2023-02-13T04:40:34;103127.69;;;4.77;100.00
61786;BME280;47692;53.714;11.372;2023-02-13T04:42:59;103126.88;;;4.78;100.00
61786;BME280;47692;53.714;11.372;2023-02-13T04:45:25;103128.56;;;4.76;100.00
61786;BME280;47692;53.714;11.372;2023-02-13T04:47:52;103134.41;;;4.72;100.00
61786;BME280;47692;53.714;11.372;2023-02-13T04:50:18;103134.41;;;4.72;100.00
61786;BME280;47692;53.714;11.372;2023-02-13T04:52:44;103137.91;;;4.73;100.00
61786;BME280;47692;53.714;11.372;2023-02-13T04:55:09;103134.41;;;4.72;100.00
61786;BME280;47692;53.714;11.372;2023-02-13T04:57:35;103132.63;;;4.71;100.00
61786;BME280;47692;53.714;11.372;2023-02-13T05:00:00;103135.31;;;4.73;100.00
61786;BME280;47692;53.714;11.372;2023-02-13T05:02:25;103136.13;;;4.72;100.00
61786;BME280;47692;53.714;11.372;2023-02-13T05:04:51;103125.72;;;4.70;100.00
61786;BME280;47692;53.714;11.372;2023-02-13T05:07:16;103130.91;;;4.70;100.00
61786;BME280;47692;53.714;11.372;2023-02-13T05:09:41;103133.34;;;4.67;100.00
61786;BME280;47692;53.714;11.372;2023-02-13T05:12:06;103127.34;;;4.68;100.00
61786;BME280;47692;53.714;11.372;2023-02-13T05:14:32;103130.91;;;4.70;100.00
61786;BME280;47692;53.714;11.372;2023-02-13T05:16:57;103130.13;;;4.73;100.00
61786;BME280;47692;53.714;11.372;2023-02-13T05:19:23;103144.66;;;4.69;100.00
61786;BME280;47692;53.714;11.372;2023-02-13T05:21:48;103143.00;;;4.71;100.00
61786;BME280;47692;53.714;11.372;2023-02-13T05:24:32;103139.53;;;4.71;100.00
61786;BME280;47692;53.714;11.372;2023-02-13T05:26:57;103135.38;;;4.74;100.00
61786;BME280;47692;53.714;11.372;2023-02-13T05:29:22;103141.34;;;4.73;100.00
61786;BME280;47692;53.714;11.372;2023-02-13T05:31:52;103142.88;;;4.68;100.00
61786;BME280;47692;53.714;11.372;2023-02-13T05:34:23;103146.41;;;4.70;100.00
61786;BME280;47692;53.714;11.372;2023-02-13T05:36:49;103149.81;;;4.69;100.00
61786;BME280;47692;53.714;11.372;2023-02-13T05:39:14;103141.25;;;4.70;100.00
61786;BME280;47692;53.714;11.372;2023-02-13T05:41:41;103141.25;;;4.70;100.00
61786;BME280;47692;53.714;11.372;2023-02-13T05:44:06;103148.16;;;4.71;100.00
61786;BME280;47692;53.714;11.372;2023-02-13T05:46:31;103144.91;;;4.75;100.00
61786;BME280;47692;53.714;11.372;2023-02-13T05:48:57;103144.00;;;4.75;100.00
61786;BME280;47692;53.714;11.372;2023-02-13T05:51:22;103154.28;;;4.73;100.00
61786;BME280;47692;53.714;11.372;2023-02-13T05:53:48;103144.50;;;4.66;100.00
61786;BME280;47692;53.714;11.372;2023-02-13T05:56:14;103148.81;;;4.65;100.00
61786;BME280;47692;53.714;11.372;2023-02-13T05:58:39;103150.63;;;4.68;100.00
61786;BME280;47692;53.714;11.372;2023-02-13T06:01:05;103155.00;;;4.69;100.00
61786;BME280;47692;53.714;11.372;2023-02-13T06:03:30;103153.28;;;4.69;100.00
61786;BME280;47692;53.714;11.372;2023-02-13T06:05:57;103143.75;;;4.68;100.00
61786;BME280;47692;53.714;11.372;2023-02-13T06:08:23;103150.63;;;4.68;100.00
61786;BME280;47692;53.714;11.372;2023-02-13T06:10:49;103159.22;;;4.67;100.00
61786;BME280;47692;53.714;11.372;2023-02-13T06:13:15;103154.94;;;4.67;100.00
61786;BME280;47692;53.714;11.372;2023-02-13T06:15:41;103160.19;;;4.69;100.00
61786;BME280;47692;53.714;11.372;2023-02-13T06:18:07;103155.00;;;4.69;100.00
61786;BME280;47692;53.714;11.372;2023-02-13T06:20:33;103157.69;;;4.72;100.00
61786;BME280;47692;53.714;11.372;2023-02-13T06:22:58;103154.19;;;4.70;100.00
61786;BME280;47692;53.714;11.372;2023-02-13T06:25:24;103153.34;;;4.71;100.00
61786;BME280;47692;53.714;11.372;2023-02-13T06:27:49;103155.00;;;4.69;100.00
61786;BME280;47692;53.714;11.372;2023-02-13T06:30:15;103163.94;;;4.77;100.00
61786;BME280;47692;53.714;11.372;2023-02-13T06:32:41;103168.75;;;4.68;100.00
61786;BME280;47692;53.714;11.372;2023-02-13T06:35:07;103169.56;;;4.67;100.00
61786;BME280;47692;53.714;11.372;2023-02-13T06:37:33;103171.28;;;4.66;100.00
61786;BME280;47692;53.714;11.372;2023-02-13T06:39:58;103175.81;;;4.72;100.00
61786;BME280;47692;53.714;11.372;2023-02-13T06:42:24;103186.06;;;4.69;100.00
61786;BME280;47692;53.714;11.372;2023-02-13T06:44:49;103191.34;;;4.72;100.00
61786;BME280;47692;53.714;11.372;2023-02-13T06:47:15;103190.47;;;4.72;100.00
61786;BME280;47692;53.714;11.372;2023-02-13T06:49:40;103194.50;;;4.65;100.00
61786;BME280;47692;53.714;11.372;2023-02-13T06:52:05;103196.41;;;4.69;100.00
61786;BME280;47692;53.714;11.372;2023-02-13T06:54:31;103203.34;;;4.70;100.00
61786;BME280;47692;53.714;11.372;2023-02-13T06:56:56;103195.50;;;4.68;100.00
61786;BME280;47692;53.714;11.372;2023-02-13T06:59:21;103211.03;;;4.68;100.00
61786;BME280;47692;53.714;11.372;2023-02-13T07:01:46;103212.75;;;4.68;100.00
61786;BME280;47692;53.714;11.372;2023-02-13T07:04:12;103217.13;;;4.69;100.00
61786;BME280;47692;53.714;11.372;2023-02-13T07:06:37;103211.03;;;4.68;100.00
61786;BME280;47692;53.714;11.372;2023-02-13T07:09:03;103220.50;;;4.68;100.00
61786;BME280;47692;53.714;11.372;2023-02-13T07:11:29;103207.44;;;4.65;100.00
61786;BME280;47692;53.714;11.372;2023-02-13T07:13:55;103218.75;;;4.67;100.00
61786;BME280;47692;53.714;11.372;2023-02-13T07:16:20;103220.38;;;4.65;100.00
61786;BME280;47692;53.714;11.372;2023-02-13T07:18:45;103222.13;;;4.66;100.00
61786;BME280;47692;53.714;11.372;2023-02-13T07:21:11;103220.31;;;4.63;100.00
61786;BME280;47692;53.714;11.372;2023-02-13T07:23:36;103223.81;;;4.64;100.00
61786;BME280;47692;53.714;11.372;2023-02-13T07:26:02;103225.44;;;4.62;100.00
61786;BME280;47692;53.714;11.372;2023-02-13T07:28:28;103222.97;;;4.65;100.00
61786;BME280;47692;53.714;11.372;2023-02-13T07:30:54;103223.91;;;4.67;100.00
61786;BME280;47692;53.714;11.372;2023-02-13T07:33:19;103226.38;;;4.64;100.00
61786;BME280;47692;53.714;11.372;2023-02-13T07:35:49;103223.81;;;4.64;100.00
61786;BME280;47692;53.714;11.372;2023-02-13T07:38:15;103228.03;;;4.62;100.00
61786;BME280;47692;53.714;11.372;2023-02-13T07:40:40;103231.56;;;4.64;100.00
61786;BME280;47692;53.714;11.372;2023-02-13T07:43:06;103227.16;;;4.61;100.00
61786;BME280;47692;53.714;11.372;2023-02-13T07:45:31;103227.97;;;4.60;100.00
61786;BME280;47692;53.714;11.372;2023-02-13T07:47:57;103224.63;;;4.63;100.00
61786;BME280;47692;53.714;11.372;2023-02-13T07:50:23;103229.72;;;4.61;100.00
61786;BME280;47692;53.714;11.372;2023-02-13T07:53:08;103225.28;;;4.59;100.00
61786;BME280;47692;53.714;11.372;2023-02-13T07:55:35;103228.56;;;4.55;100.00
61786;BME280;47692;53.714;11.372;2023-02-13T07:58:00;103228.72;;;4.58;100.00
61786;BME280;47692;53.714;11.372;2023-02-13T08:00:26;103227.06;;;4.60;100.00
61786;BME280;47692;53.714;11.372;2023-02-13T08:02:51;103221.78;;;4.57;100.00
61786;BME280;47692;53.714;11.372;2023-02-13T08:05:16;103225.28;;;4.59;100.00
61786;BME280;47692;53.714;11.372;2023-02-13T08:07:42;103234.00;;;4.61;100.00
61786;BME280;47692;53.714;11.372;2023-02-13T08:10:08;103229.72;;;4.61;100.00
61786;BME280;47692;53.714;11.372;2023-02-13T08:12:54;103227.88;;;4.59;100.00
61786;BME280;47692;53.714;11.372;2023-02-13T08:15:19;103229.66;;;4.60;100.00
61786;BME280;47692;53.714;11.372;2023-02-13T08:17:44;103230.59;;;4.62;100.00
61786;BME280;47692;53.714;11.372;2023-02-13T08:20:10;103232.22;;;4.60;100.00
61786;BME280;47692;53.714;11.372;2023-02-13T08:22:37;103235.63;;;4.59;100.00
61786;BME280;47692;53.714;11.372;2023-02-13T08:25:04;103233.19;;;4.62;100.00
61786;BME280;47692;53.714;11.372;2023-02-13T08:27:30;103234.81;;;4.60;100.00
61786;BME280;47692;53.714;11.372;2023-02-13T08:29:56;103230.66;;;4.63;100.00
61786;BME280;47692;53.714;11.372;2023-02-13T08:32:23;103235.78;;;4.62;100.00
61786;BME280;47692;53.714;11.372;2023-02-13T08:34:48;103236.47;;;4.58;100.00
61786;BME280;47692;53.714;11.372;2023-02-13T08:37:14;103237.41;;;4.60;100.00
61786;BME280;47692;53.714;11.372;2023-02-13T08:39:39;103236.47;;;4.58;100.00
61786;BME280;47692;53.714;11.372;2023-02-13T08:42:05;103238.09;;;4.56;100.00
61786;BME280;47692;53.714;11.372;2023-02-13T08:44:30;103245.88;;;4.56;100.00
61786;BME280;47692;53.714;11.372;2023-02-13T08:46:56;103235.78;;;4.62;100.00
61786;BME280;47692;53.714;11.372;2023-02-13T08:49:21;103233.75;;;4.55;100.00
61786;BME280;47692;53.714;11.372;2023-02-13T08:51:48;103231.47;;;4.62;100.00
61786;BME280;47692;53.714;11.372;2023-02-13T08:54:13;103228.84;;;4.61;100.00
61786;BME280;47692;53.714;11.372;2023-02-13T08:56:39;103237.41;;;4.60;100.00
61786;BME280;47692;53.714;11.372;2023-02-13T08:59:05;103238.44;;;4.63;100.00
61786;BME280;47692;53.714;11.372;2023-02-13T09:01:30;103240.09;;;4.61;100.00
61786;BME280;47692;53.714;11.372;2023-02-13T09:03:55;103246.13;;;4.62;100.00
61786;BME280;47692;53.714;11.372;2023-02-13T09:06:21;103247.91;;;4.63;100.00
61786;BME280;47692;53.714;11.372;2023-02-13T09:08:47;103246.34;;;4.66;100.00
61786;BME280;47692;53.714;11.372;2023-02-13T09:11:12;103248.16;;;4.69;100.00
61786;BME280;47692;53.714;11.372;2023-02-13T09:13:38;103246.41;;;4.68;99.65
61786;BME280;47692;53.714;11.372;2023-02-13T09:16:05;103245.63;;;4.71;99.38
61786;BME280;47692;53.714;11.372;2023-02-13T09:18:31;103244.06;;;4.74;99.30
61786;BME280;47692;53.714;11.372;2023-02-13T09:21:02;103239.00;;;4.77;98.92
61786;BME280;47692;53.714;11.372;2023-02-13T09:23:33;103235.53;;;4.77;98.32
61786;BME280;47692;53.714;11.372;2023-02-13T09:26:03;103227.81;;;4.78;97.55
61786;BME280;47692;53.714;11.372;2023-02-13T09:28:29;103228.84;;;4.82;97.69
61786;BME280;47692;53.714;11.372;2023-02-13T09:30:56;103229.56;;;4.78;97.45
61786;BME280;47692;53.714;11.372;2023-02-13T09:33:21;103221.03;;;4.80;97.76
61786;BME280;47692;53.714;11.372;2023-02-13T09:35:47;103214.22;;;4.82;97.79
61786;BME280;47692;53.714;11.372;2023-02-13T09:38:12;103203.88;;;4.82;96.69
61786;BME280;47692;53.714;11.372;2023-02-13T09:40:44;103215.13;;;4.84;96.70
61786;BME280;47692;53.714;11.372;2023-02-13T09:43:15;103211.03;;;4.90;96.49
61786;BME280;47692;53.714;11.372;2023-02-13T09:45:44;103219.75;;;4.92;95.67
61786;BME280;47692;53.714;11.372;2023-02-13T09:48:19;103219.94;;;4.96;95.49
61786;BME280;47692;53.714;11.372;2023-02-13T09:50:48;103224.16;;;4.94;93.68
61786;BME280;47692;53.714;11.372;2023-02-13T09:53:20;103225.81;;;4.92;93.82
61786;BME280;47692;53.714;11.372;2023-02-13T09:55:55;103228.34;;;4.91;94.34
61786;BME280;47692;53.714;11.372;2023-02-13T10:01:27;103228.34;;;4.91;95.20
61786;BME280;47692;53.714;11.372;2023-02-13T10:04:26;103228.47;;;4.94;94.66
61786;BME280;47692;53.714;11.372;2023-02-13T10:07:12;103228.34;;;4.91;94.81
61786;BME280;47692;53.714;11.372;2023-02-13T10:09:59;103230.00;;;4.89;95.04
61786;BME280;47692;53.714;11.372;2023-02-13T10:15:47;103238.75;;;4.92;93.99
61786;BME280;47692;53.714;11.372;2023-02-13T10:18:18;103242.34;;;4.96;94.19
61786;BME280;47692;53.714;11.372;2023-02-13T10:20:51;103243.13;;;4.93;93.91
61786;BME280;47692;53.714;11.372;2023-02-13T10:23:23;103235.28;;;4.92;93.58
61786;BME280;47692;53.714;11.372;2023-02-13T10:26:00;103241.44;;;4.94;93.98
61786;BME280;47692;53.714;11.372;2023-02-13T10:28:37;103239.66;;;4.93;93.94
61786;BME280;47692;53.714;11.372;2023-02-13T10:31:10;103234.47;;;4.93;94.39
61786;BME280;47692;53.714;11.372;2023-02-13T10:33:49;103243.19;;;4.95;93.03
61786;BME280;47692;53.714;11.372;2023-02-13T10:36:21;103240.72;;;4.98;92.79
61786;BME280;47692;53.714;11.372;2023-02-13T10:39:23;103239.75;;;4.96;93.63
61786;BME280;47692;53.714;11.372;2023-02-13T10:42:21;103236.25;;;4.94;93.32
61786;BME280;47692;53.714;11.372;2023-02-13T10:51:01;103231.22;;;4.98;94.61
61786;BME280;47692;53.714;11.372;2023-02-13T10:53:35;103223.66;;;5.03;94.67
61786;BME280;47692;53.714;11.372;2023-02-13T10:56:15;103222.91;;;5.06;93.39
61786;BME280;47692;53.714;11.372;2023-02-13T10:58:56;103221.22;;;5.06;92.20
61786;BME280;47692;53.714;11.372;2023-02-13T11:04:11;103225.44;;;5.04;91.46
61786;BME280;47692;53.714;11.372;2023-02-13T11:06:50;103231.44;;;5.03;91.81
61786;BME280;47692;53.714;11.372;2023-02-13T11:09:19;103230.72;;;5.07;92.60
61786;BME280;47692;53.714;11.372;2023-02-13T11:11:44;103229.66;;;5.02;92.35
61786;BME280;47692;53.714;11.372;2023-02-13T11:14:24;103226.19;;;5.01;92.61
61786;BME280;47692;53.714;11.372;2023-02-13T11:17:05;103225.53;;;5.07;92.89
61786;BME280;47692;53.714;11.372;2023-02-13T11:19:38;103223.81;;;5.06;92.98
61786;BME280;47692;53.714;11.372;2023-02-13T11:22:10;103222.13;;;5.08;92.66
61786;BME280;47692;53.714;11.372;2023-02-13T11:24:39;103224.81;;;5.10;92.34
61786;BME280;47692;53.714;11.372;2023-02-13T11:27:07;103223.28;;;5.15;92.86
61786;BME280;47692;53.714;11.372;2023-02-13T11:29:51;103229.34;;;5.15;92.95
61786;BME280;47692;53.714;11.372;2023-02-13T11:32:21;103225.16;;;5.19;92.73
61786;BME280;47692;53.714;11.372;2023-02-13T11:34:48;103220.75;;;5.16;92.89
61786;BME280;47692;53.714;11.372;2023-02-13T11:37:29;103215.69;;;5.20;92.30
61786;BME280;47692;53.714;11.372;2023-02-13T11:39:57;103225.16;;;5.19;91.46
61786;BME280;47692;53.714;11.372;2023-02-13T11:42:31;103215.69;;;5.20;91.61
61786;BME280;47692;53.714;11.372;2023-02-13T11:45:06;103212.25;;;5.21;91.72
61786;BME280;47692;53.714;11.372;2023-02-13T11:47:36;103211.59;;;5.25;90.73
61786;BME280;47692;53.714;11.372;2023-02-13T11:50:03;103210.16;;;5.33;90.78
61786;BME280;47692;53.714;11.372;2023-02-13T11:52:31;103210.88;;;5.29;90.55
61786;BME280;47692;53.714;11.372;2023-02-13T11:55:03;103214.66;;;5.37;90.04
61786;BME280;47692;53.714;11.372;2023-02-13T11:57:33;103218.16;;;5.39;90.23
61786;BME280;47692;53.714;11.372;2023-02-13T12:00:00;103224.13;;;5.37;90.03
61786;BME280;47692;53.714;11.372;2023-02-13T12:02:47;103221.72;;;5.41;90.24
61786;BME280;47692;53.714;11.372;2023-02-13T12:05:18;103225.03;;;5.37;90.71
61786;BME280;47692;53.714;11.372;2023-02-13T12:07:45;103225.13;;;5.40;90.30
61786;BME280;47692;53.714;11.372;2023-02-13T12:12:45;103229.59;;;5.44;90.76
61786;BME280;47692;53.714;11.372;2023-02-13T12:15:17;103225.50;;;5.49;90.53
61786;BME280;47692;53.714;11.372;2023-02-13T12:17:44;103221.94;;;5.47;90.59
61786;BME280;47692;53.714;11.372;2023-02-13T12:20:15;103218.41;;;5.45;90.38
61786;BME280;47692;53.714;11.372;2023-02-13T12:25:45;103218.53;;;5.48;89.76
61786;BME280;47692;53.714;11.372;2023-02-13T12:28:21;103213.22;;;5.45;90.16
61786;BME280;47692;53.714;11.372;2023-02-13T12:44:30;103211.69;;;5.50;90.01
61786;BME280;47692;53.714;11.372;2023-02-13T12:58:24;103204.22;;;5.58;91.86
61786;BME280;47692;53.714;11.372;2023-02-13T13:01:02;103212.00;;;5.58;91.62
61786;BME280;47692;53.714;11.372;2023-02-13T13:03:45;103205.81;;;5.55;91.51
61786;BME280;47692;53.714;11.372;2023-02-13T13:11:31;103203.31;;;5.58;90.45
61786;BME280;47692;53.714;11.372;2023-02-13T13:14:35;103202.22;;;5.51;90.68
61786;BME280;47692;53.714;11.372;2023-02-13T13:17:18;103206.63;;;5.54;91.27
61786;BME280;47692;53.714;11.372;2023-02-13T13:19:54;103210.06;;;5.53;91.29
61786;BME280;47692;53.714;11.372;2023-02-13T13:22:44;103209.94;;;5.49;91.72
61786;BME280;47692;53.714;11.372;2023-02-13T13:25:25;103205.50;;;5.47;91.25
61786;BME280;47692;53.714;11.372;2023-02-13T13:27:59;103215.22;;;5.53;91.65
61786;BME280;47692;53.714;11.372;2023-02-13T13:30:28;103207.28;;;5.48;90.88
61786;BME280;47692;53.714;11.372;2023-02-13T13:32:59;103210.06;;;5.53;91.36
61786;BME280;47692;53.714;11.372;2023-02-13T13:35:27;103217.00;;;5.54;91.49
61786;BME280;47692;53.714;11.372;2023-02-13T13:37:57;103207.34;;;5.49;92.02
61786;BME280;47692;53.714;11.372;2023-02-13T13:40:37;103208.03;;;5.45;92.08
61786;BME280;47692;53.714;11.372;2023-02-13T13:46:07;103208.19;;;5.48;92.41
61786;BME280;47692;53.714;11.372;2023-02-13T13:51:25;103197.81;;;5.48;92.62
61786;BME280;47692;53.714;11.372;2023-02-13T13:56:25;103197.19;;;5.56;91.92
61786;BME280;47692;53.714;11.372;2023-02-13T13:58:50;103198.03;;;5.55;91.15
61786;BME280;47692;53.714;11.372;2023-02-13T14:03:54;103195.91;;;5.44;91.22
61786;BME280;47692;53.714;11.372;2023-02-13T14:09:39;103188.25;;;5.47;91.92
61786;BME280;47692;53.714;11.372;2023-02-13T14:14:49;103190.84;;;5.47;91.82
61786;BME280;47692;53.714;11.372;2023-02-13T14:17:15;103176.25;;;5.49;91.92
61786;BME280;47692;53.714;11.372;2023-02-13T14:19:46;103183.09;;;5.47;90.97
61786;BME280;47692;53.714;11.372;2023-02-13T14:27:23;103161.94;;;5.37;92.52
61786;BME280;47692;53.714;11.372;2023-02-13T14:29:49;103154.13;;;5.35;93.02
61786;BME280;47692;53.714;11.372;2023-02-13T14:34:57;103163.72;;;5.38;92.96
61786;BME280;47692;53.714;11.372;2023-02-13T14:37:31;103161.88;;;5.35;93.07
61786;BME280;47692;53.714;11.372;2023-02-13T14:42:41;103151.63;;;5.38;93.44
61786;BME280;47692;53.714;11.372;2023-02-13T14:45:31;103144.00;;;5.41;92.95
61786;BME280;47692;53.714;11.372;2023-02-13T14:48:03;103144.09;;;5.44;92.89
61786;BME280;47692;53.714;11.372;2023-02-13T14:50:48;103147.44;;;5.42;92.83